createdAt,value
2023-04-19T00:00:59.402Z,13.31
2023-04-19T00:03:26.464Z,13.28
2023-04-19T00:05:54.425Z,13.29
2023-04-19T00:08:21.548Z,13.28
2023-04-19T00:10:48.301Z,13.26
2023-04-19T00:13:15.781Z,13.25
2023-04-19T00:15:42.632Z,13.25
2023-04-19T00:18:09.600Z,13.25
2023-04-19T00:20:36.816Z,13.26
2023-04-19T00:23:03.856Z,13.22
2023-04-19T00:25:32.032Z,13.18
2023-04-19T00:27:58.869Z,13.16
2023-04-19T00:30:27.259Z,13.12
2023-04-19T00:32:54.166Z,13.08
2023-04-19T00:35:21.404Z,13.06
2023-04-19T00:37:48.996Z,13.01
2023-04-19T00:40:16.234Z,12.99
2023-04-19T00:42:43.308Z,12.93
2023-04-19T00:45:12.799Z,12.86
2023-04-19T00:47:39.803Z,12.86
2023-04-19T00:50:07.686Z,12.82
2023-04-19T00:52:34.869Z,12.79
2023-04-19T00:55:03.198Z,12.76
2023-04-19T00:57:32.353Z,12.76
2023-04-19T01:00:00.769Z,12.73
2023-04-19T01:02:33.279Z,12.72
2023-04-19T01:05:00.648Z,12.71
2023-04-19T01:07:27.809Z,12.71
2023-04-19T01:09:54.818Z,12.72
2023-04-19T01:12:23.188Z,12.70
2023-04-19T01:14:51.061Z,12.66
2023-04-19T01:17:19.562Z,12.68
2023-04-19T01:19:46.702Z,12.68
2023-04-19T01:22:22.951Z,12.67
2023-04-19T01:24:50.309Z,12.68
2023-04-19T01:27:17.675Z,12.66
2023-04-19T01:29:44.870Z,12.65
2023-04-19T01:32:13.909Z,12.58
2023-04-19T01:34:42.136Z,12.50
2023-04-19T01:37:09.239Z,12.46
2023-04-19T01:39:36.120Z,12.42
2023-04-19T01:42:03.177Z,12.38
2023-04-19T01:44:30.676Z,12.36
2023-04-19T01:46:57.635Z,12.34
2023-04-19T01:49:24.643Z,12.31
2023-04-19T01:51:51.614Z,12.26
2023-04-19T01:54:18.471Z,12.23
2023-04-19T01:56:45.338Z,12.20
2023-04-19T01:59:12.588Z,12.19
2023-04-19T02:01:40.011Z,12.14
2023-04-19T02:04:08.094Z,12.08
2023-04-19T02:06:38.068Z,11.98
2023-04-19T02:09:05.156Z,11.92
2023-04-19T02:11:32.128Z,11.89
2023-04-19T02:13:59.023Z,11.80
2023-04-19T02:16:27.997Z,11.72
2023-04-19T02:18:55.012Z,11.69
2023-04-19T02:21:22.046Z,11.66
2023-04-19T02:23:48.855Z,11.61
2023-04-19T02:26:15.687Z,11.57
2023-04-19T02:28:43.582Z,11.55
2023-04-19T02:31:12.727Z,11.55
2023-04-19T02:33:39.962Z,11.53
2023-04-19T02:36:07.207Z,11.51
2023-04-19T02:38:34.273Z,11.48
2023-04-19T02:41:04.397Z,11.48
2023-04-19T02:43:32.009Z,11.50
2023-04-19T02:45:58.968Z,11.52
2023-04-19T02:48:26.190Z,11.56
2023-04-19T02:50:53.695Z,11.56
2023-04-19T02:53:21.575Z,11.61
2023-04-19T02:55:52.077Z,11.66
2023-04-19T02:58:20.168Z,11.70
2023-04-19T03:01:07.111Z,11.77
2023-04-19T03:03:34.175Z,11.86
2023-04-19T03:06:01.342Z,11.95
2023-04-19T03:08:29.538Z,12.01
2023-04-19T03:10:56.523Z,12.10
2023-04-19T03:13:23.338Z,12.15
2023-04-19T03:15:50.802Z,12.18
2023-04-19T03:18:21.748Z,12.22
2023-04-19T03:20:48.577Z,12.24
2023-04-19T03:23:16.485Z,12.23
2023-04-19T03:25:46.983Z,12.26
2023-04-19T03:28:23.655Z,12.29
2023-04-19T03:31:09.063Z,12.32
2023-04-19T03:33:36.961Z,12.31
2023-04-19T03:36:04.284Z,12.35
2023-04-19T03:38:31.555Z,12.38
2023-04-19T03:40:59.286Z,12.35
2023-04-19T03:43:29.289Z,12.32
2023-04-19T03:45:56.186Z,12.36
2023-04-19T03:48:22.968Z,12.35
2023-04-19T03:50:50.248Z,12.34
2023-04-19T03:53:19.010Z,12.32
2023-04-19T03:55:46.032Z,12.34
2023-04-19T03:58:13.078Z,12.34
2023-04-19T04:01:04.028Z,12.29
2023-04-19T04:03:31.678Z,12.22
2023-04-19T04:05:58.705Z,12.22
2023-04-19T04:08:25.619Z,12.24
2023-04-19T04:10:55.743Z,12.16
2023-04-19T04:13:25.249Z,12.20
2023-04-19T04:16:04.227Z,12.11
2023-04-19T04:18:34.504Z,12.15
2023-04-19T04:21:04.610Z,12.11
2023-04-19T04:23:37.857Z,12.16
2023-04-19T04:26:10.148Z,12.17
2023-04-19T04:28:53.819Z,12.21
2023-04-19T04:31:21.213Z,12.17
2023-04-19T04:33:48.402Z,12.14
2023-04-19T04:36:18.737Z,12.14
2023-04-19T04:38:45.950Z,12.20
2023-04-19T04:41:12.908Z,12.16
2023-04-19T04:43:39.787Z,12.12
2023-04-19T04:46:06.837Z,12.12
2023-04-19T04:48:38.273Z,12.13
2023-04-19T04:51:06.173Z,12.09
2023-04-19T04:53:34.355Z,12.11
2023-04-19T04:56:04.035Z,12.14
2023-04-19T04:58:31.662Z,12.10
2023-04-19T05:01:10.045Z,11.98
2023-04-19T05:03:40.105Z,12.01
2023-04-19T05:06:11.696Z,11.88
2023-04-19T05:08:38.896Z,11.85
2023-04-19T05:11:15.240Z,11.92
2023-04-19T05:13:43.094Z,11.98
2023-04-19T05:16:10.243Z,12.07
2023-04-19T05:18:39.417Z,12.10
2023-04-19T05:21:08.324Z,12.13
2023-04-19T05:23:36.714Z,12.16
2023-04-19T05:26:04.015Z,12.16
2023-04-19T05:28:31.452Z,12.17
2023-04-19T05:31:05.312Z,12.18
2023-04-19T05:33:39.252Z,12.18
2023-04-19T05:36:06.664Z,12.20
2023-04-19T05:38:34.315Z,12.27
2023-04-19T05:41:03.268Z,12.22
2023-04-19T05:43:32.885Z,12.22
2023-04-19T05:46:00.808Z,12.27
2023-04-19T05:48:28.964Z,12.30
2023-04-19T05:51:08.108Z,12.32
2023-04-19T05:54:01.459Z,12.36
2023-04-19T05:56:30.602Z,12.42
2023-04-19T05:58:57.877Z,12.51
2023-04-19T06:01:25.052Z,12.60
2023-04-19T06:03:53.762Z,12.62
2023-04-19T06:06:24.882Z,12.60
2023-04-19T06:08:54.443Z,12.60
2023-04-19T06:11:28.872Z,12.58
2023-04-19T06:13:58.875Z,12.43
2023-04-19T06:16:26.987Z,12.39
2023-04-19T06:18:57.203Z,12.42
2023-04-19T06:21:25.431Z,12.40
2023-04-19T06:23:52.380Z,12.35
2023-04-19T06:26:21.830Z,12.40
2023-04-19T06:28:49.790Z,12.48
2023-04-19T06:31:16.797Z,12.55
2023-04-19T06:33:43.955Z,12.65
2023-04-19T06:36:10.986Z,12.64
2023-04-19T06:38:38.567Z,12.69
2023-04-19T06:41:05.802Z,12.71
2023-04-19T06:43:32.606Z,12.73
2023-04-19T06:46:03.195Z,12.79
2023-04-19T06:48:30.909Z,12.79
2023-04-19T06:50:57.785Z,12.81
2023-04-19T06:53:24.876Z,12.79
2023-04-19T06:55:59.128Z,12.82
2023-04-19T06:58:25.995Z,12.70
2023-04-19T07:00:53.302Z,12.66
2023-04-19T07:03:20.754Z,12.74
2023-04-19T07:05:48.061Z,12.72
2023-04-19T07:08:14.989Z,12.75
2023-04-19T07:10:43.841Z,12.79
2023-04-19T07:13:13.798Z,12.67
2023-04-19T07:15:40.759Z,12.70
2023-04-19T07:18:07.713Z,12.74
2023-04-19T07:20:34.809Z,12.77
2023-04-19T07:23:01.751Z,12.82
2023-04-19T07:25:29.573Z,12.81
2023-04-19T07:27:57.333Z,12.77
2023-04-19T07:30:24.848Z,12.76
2023-04-19T07:32:53.701Z,12.60
2023-04-19T07:35:20.925Z,12.44
2023-04-19T07:37:47.974Z,12.41
2023-04-19T07:40:15.351Z,12.48
2023-04-19T07:42:44.380Z,12.49
2023-04-19T07:45:12.104Z,12.62
2023-04-19T07:47:39.093Z,12.69
2023-04-19T07:50:07.794Z,12.70
2023-04-19T07:52:34.858Z,12.60
2023-04-19T07:55:01.881Z,12.63
2023-04-19T07:57:33.241Z,12.66
2023-04-19T08:00:02.342Z,12.71
2023-04-19T08:02:34.412Z,12.71
2023-04-19T08:05:02.534Z,12.71
2023-04-19T08:07:35.519Z,12.76
2023-04-19T08:10:17.108Z,12.71
2023-04-19T08:13:03.796Z,12.65
2023-04-19T08:18:13.266Z,12.69
2023-04-19T08:20:47.430Z,12.72
2023-04-19T08:23:25.973Z,12.71
2023-04-19T08:26:01.187Z,12.81
2023-04-19T08:28:30.124Z,12.84
2023-04-19T08:30:58.969Z,12.84
2023-04-19T08:33:25.748Z,12.79
2023-04-19T08:35:52.596Z,12.52
2023-04-19T08:38:19.571Z,12.37
2023-04-19T08:40:53.321Z,12.37
2023-04-19T08:43:20.836Z,12.48
2023-04-19T08:45:50.002Z,12.50
2023-04-19T08:48:18.340Z,12.53
2023-04-19T08:51:04.121Z,12.56
2023-04-19T08:53:36.013Z,12.49
2023-04-19T08:56:15.216Z,12.47
2023-04-19T08:59:03.938Z,12.42
2023-04-19T09:01:37.143Z,12.38
2023-04-19T09:04:21.552Z,12.36
2023-04-19T09:06:55.822Z,12.34
2023-04-19T09:11:58.521Z,12.37
2023-04-19T09:14:27.112Z,12.51
2023-04-19T09:16:54.263Z,12.64
2023-04-19T09:19:24.656Z,12.69
2023-04-19T09:21:54.530Z,12.87
2023-04-19T09:27:12.335Z,13.50
2023-04-19T09:29:40.800Z,13.74
2023-04-19T09:32:08.284Z,13.89
2023-04-19T09:34:35.270Z,14.11
2023-04-19T09:37:21.530Z,14.18
2023-04-19T09:40:00.417Z,14.40
2023-04-19T09:48:00.292Z,14.43
2023-04-19T09:52:55.627Z,14.35
2023-04-19T09:55:27.759Z,13.76
2023-04-19T09:57:56.158Z,13.58
2023-04-19T10:00:23.432Z,13.48
2023-04-19T10:02:58.449Z,13.44
2023-04-19T10:05:26.718Z,13.49
2023-04-19T10:07:59.620Z,13.44
2023-04-19T10:15:49.491Z,13.02
2023-04-19T10:18:18.563Z,13.01
2023-04-19T10:20:54.173Z,12.93
2023-04-19T10:23:22.628Z,13.16
2023-04-19T10:25:55.900Z,13.19
2023-04-19T10:28:23.107Z,13.47
2023-04-19T10:31:01.962Z,13.34
2023-04-19T10:33:37.719Z,13.58
2023-04-19T10:36:08.875Z,13.63
2023-04-19T10:38:48.239Z,13.71
2023-04-19T10:41:19.313Z,13.98
2023-04-19T10:43:58.542Z,13.78
2023-04-19T10:46:38.469Z,13.94
2023-04-19T10:49:07.885Z,14.12
2023-04-19T10:51:36.667Z,14.41
2023-04-19T10:54:07.618Z,14.59
2023-04-19T10:56:34.606Z,14.57
2023-04-19T10:59:05.377Z,14.72
2023-04-19T11:01:40.768Z,14.94
2023-04-19T11:04:12.444Z,14.96
2023-04-19T11:06:55.318Z,15.01
2023-04-19T11:09:26.843Z,15.15
2023-04-19T11:11:57.793Z,15.22
2023-04-19T11:14:25.390Z,14.89
2023-04-19T11:16:52.310Z,14.77
2023-04-19T11:19:20.456Z,14.67
2023-04-19T11:21:48.443Z,14.36
2023-04-19T11:24:18.614Z,14.43
2023-04-19T11:26:46.704Z,14.51
2023-04-19T11:29:13.838Z,14.45
2023-04-19T11:31:43.791Z,14.66
2023-04-19T11:34:10.796Z,14.94
2023-04-19T11:36:48.796Z,14.89
2023-04-19T11:39:16.823Z,14.79
2023-04-19T11:41:43.679Z,14.89
2023-04-19T11:44:15.489Z,15.24
2023-04-19T11:46:43.527Z,15.37
2023-04-19T11:49:10.633Z,15.42
2023-04-19T11:51:42.896Z,15.62
2023-04-19T11:54:17.240Z,15.92
2023-04-19T11:57:09.515Z,16.29
2023-04-19T11:59:37.345Z,16.42
2023-04-19T12:02:12.323Z,16.04
2023-04-19T12:04:41.064Z,16.01
2023-04-19T12:07:10.599Z,16.00
2023-04-19T12:09:38.660Z,15.62
2023-04-19T12:12:08.358Z,15.59
2023-04-19T12:14:35.518Z,15.67
2023-04-19T12:17:14.770Z,15.18
2023-04-19T12:19:46.862Z,15.30
2023-04-19T12:22:16.858Z,15.47
2023-04-19T12:24:43.948Z,15.37
2023-04-19T12:27:11.658Z,15.05
2023-04-19T12:29:41.213Z,15.13
2023-04-19T12:32:08.205Z,15.32
2023-04-19T12:34:35.068Z,15.07
2023-04-19T12:37:04.465Z,14.65
2023-04-19T12:39:32.605Z,14.60
2023-04-19T12:41:59.536Z,14.50
2023-04-19T12:44:26.733Z,14.42
2023-04-19T12:46:57.763Z,14.47
2023-04-19T12:49:24.904Z,14.41
2023-04-19T12:51:51.713Z,14.56
2023-04-19T12:54:18.491Z,14.35
2023-04-19T12:56:45.463Z,14.38
2023-04-19T12:59:12.282Z,14.18
2023-04-19T13:01:39.913Z,14.22
2023-04-19T13:04:09.163Z,14.46
2023-04-19T13:06:36.372Z,14.79
2023-04-19T13:09:13.644Z,15.14
2023-04-19T13:11:41.443Z,15.58
2023-04-19T13:14:08.288Z,15.32
2023-04-19T13:16:35.235Z,15.28
2023-04-19T13:19:02.327Z,15.35
2023-04-19T13:21:29.243Z,15.44
2023-04-19T13:23:58.307Z,15.40
2023-04-19T13:26:28.906Z,15.18
2023-04-19T13:28:56.621Z,15.47
2023-04-19T13:31:23.514Z,15.33
2023-04-19T13:33:50.628Z,15.59
2023-04-19T13:36:17.591Z,15.03
2023-04-19T13:38:45.789Z,14.85
2023-04-19T13:41:12.731Z,14.85
2023-04-19T13:43:39.786Z,14.97
2023-04-19T13:46:06.923Z,15.00
2023-04-19T13:48:33.938Z,15.17
2023-04-19T13:51:00.834Z,14.94
2023-04-19T13:53:29.322Z,14.92
2023-04-19T13:55:57.114Z,14.82
2023-04-19T13:58:26.890Z,14.92
2023-04-19T14:00:54.221Z,14.99
2023-04-19T14:03:23.291Z,15.20
2023-04-19T14:05:50.710Z,15.19
2023-04-19T14:08:17.604Z,15.35
2023-04-19T14:10:44.940Z,15.52
2023-04-19T14:13:12.108Z,15.32
2023-04-19T14:15:40.822Z,15.09
2023-04-19T14:18:07.849Z,14.90
2023-04-19T14:20:35.073Z,14.73
2023-04-19T14:23:02.570Z,14.63
2023-04-19T14:25:30.110Z,14.40
2023-04-19T14:27:58.155Z,14.32
2023-04-19T14:30:50.866Z,14.25
2023-04-19T14:33:17.794Z,14.37
2023-04-19T14:35:44.607Z,14.23
2023-04-19T14:38:11.728Z,14.07
2023-04-19T14:40:38.567Z,14.15
2023-04-19T14:43:06.996Z,14.07
2023-04-19T14:45:33.939Z,14.06
2023-04-19T14:48:00.941Z,14.21
2023-04-19T14:50:27.824Z,14.11
2023-04-19T14:52:54.771Z,14.11
2023-04-19T14:55:22.729Z,14.00
2023-04-19T14:57:49.655Z,13.67
2023-04-19T15:00:17.028Z,13.52
2023-04-19T15:02:44.570Z,13.41
2023-04-19T15:05:15.159Z,13.21
2023-04-19T15:07:45.080Z,13.25
2023-04-19T15:10:13.636Z,13.27
2023-04-19T15:12:40.534Z,13.31
2023-04-19T15:15:10.048Z,13.24
2023-04-19T15:17:37.479Z,13.10
2023-04-19T15:20:05.984Z,13.32
2023-04-19T15:22:36.528Z,13.40
2023-04-19T15:25:03.806Z,13.62
2023-04-19T15:27:32.418Z,13.44
2023-04-19T15:30:00.562Z,13.47
2023-04-19T15:32:30.220Z,13.24
2023-04-19T15:34:57.162Z,13.24
2023-04-19T15:37:24.070Z,13.14
2023-04-19T15:39:51.433Z,13.13
2023-04-19T15:42:18.304Z,13.09
2023-04-19T15:44:45.242Z,13.26
2023-04-19T15:47:12.084Z,13.12
2023-04-19T15:49:40.888Z,13.18
2023-04-19T15:52:11.045Z,13.15
2023-04-19T15:54:38.588Z,13.21
2023-04-19T15:57:05.850Z,13.11
2023-04-19T15:59:33.536Z,13.09
2023-04-19T16:02:00.647Z,12.94
2023-04-19T16:04:28.077Z,13.00
2023-04-19T16:06:57.845Z,12.99
2023-04-19T16:09:29.039Z,13.03
2023-04-19T16:11:56.332Z,13.06
2023-04-19T16:14:23.926Z,13.08
2023-04-19T16:16:51.052Z,12.92
2023-04-19T16:19:27.006Z,12.86
2023-04-19T16:21:54.912Z,12.76
2023-04-19T16:24:21.774Z,12.67
2023-04-19T16:26:48.988Z,12.51
2023-04-19T16:29:16.133Z,12.44
2023-04-19T16:31:43.337Z,12.27
2023-04-19T16:34:10.712Z,12.25
2023-04-19T16:36:37.622Z,12.06
2023-04-19T16:39:04.604Z,11.99
2023-04-19T16:41:31.599Z,11.83
2023-04-19T16:43:58.817Z,11.72
2023-04-19T16:46:26.140Z,11.68
2023-04-19T16:48:53.123Z,11.50
2023-04-19T16:51:19.930Z,11.45
2023-04-19T16:53:50.217Z,11.50
2023-04-19T16:56:18.860Z,11.46
2023-04-19T16:58:46.894Z,11.36
2023-04-19T17:01:16.945Z,11.30
2023-04-19T17:03:45.036Z,11.19
2023-04-19T17:06:11.977Z,11.12
2023-04-19T17:08:38.777Z,11.12
2023-04-19T17:11:05.757Z,11.07
2023-04-19T17:13:32.571Z,11.11
2023-04-19T17:15:59.471Z,11.05
2023-04-19T17:18:26.338Z,10.98
2023-04-19T17:20:53.536Z,10.88
2023-04-19T17:23:21.236Z,10.84
2023-04-19T17:25:48.003Z,10.83
2023-04-19T17:28:14.845Z,10.86
2023-04-19T17:30:41.802Z,10.81
2023-04-19T17:33:08.685Z,10.79
2023-04-19T17:35:38.024Z,10.81
2023-04-19T17:38:04.951Z,10.81
2023-04-19T17:40:31.848Z,10.77
2023-04-19T17:42:58.653Z,10.72
2023-04-19T17:45:27.049Z,10.68
2023-04-19T17:47:56.210Z,10.63
2023-04-19T17:50:23.469Z,10.58
2023-04-19T17:52:50.404Z,10.70
2023-04-19T17:55:17.224Z,10.60
2023-04-19T17:57:46.912Z,10.55
2023-04-19T18:00:15.232Z,10.51
2023-04-19T18:02:42.146Z,10.42
2023-04-19T18:05:09.375Z,10.34
2023-04-19T18:07:42.038Z,10.30
2023-04-19T18:10:09.475Z,10.27
2023-04-19T18:12:36.683Z,10.37
2023-04-19T18:15:04.113Z,10.21
2023-04-19T18:17:32.203Z,10.19
2023-04-19T18:19:59.331Z,10.21
2023-04-19T18:22:26.877Z,10.24
2023-04-19T18:24:53.921Z,10.29
2023-04-19T18:27:21.321Z,10.23
2023-04-19T18:29:52.473Z,10.19
2023-04-19T18:32:21.870Z,10.19
2023-04-19T18:34:49.074Z,10.18
2023-04-19T18:37:16.820Z,10.21
2023-04-19T18:39:44.362Z,10.28
2023-04-19T18:42:11.877Z,10.34
2023-04-19T18:44:52.948Z,10.39
2023-04-19T18:47:21.855Z,10.44
2023-04-19T18:50:02.670Z,10.43
2023-04-19T18:52:34.512Z,10.41
2023-04-19T18:55:01.669Z,10.44
2023-04-19T18:57:34.162Z,10.45
2023-04-19T19:00:03.648Z,10.52
2023-04-19T19:02:34.594Z,10.60
2023-04-19T19:05:02.497Z,10.68
2023-04-19T19:10:03.553Z,10.73
2023-04-19T19:12:39.723Z,10.66
2023-04-19T19:15:08.664Z,10.67
2023-04-19T19:17:35.711Z,10.63
2023-04-19T19:20:02.911Z,10.58
2023-04-19T19:22:31.219Z,10.42
2023-04-19T19:25:00.635Z,10.35
2023-04-19T19:27:28.283Z,10.21
2023-04-19T19:29:55.327Z,10.14
2023-04-19T19:32:22.408Z,10.03
2023-04-19T19:34:56.320Z,9.91
2023-04-19T19:37:31.129Z,9.96
2023-04-19T19:40:02.726Z,9.80
2023-04-19T19:42:31.252Z,9.71
2023-04-19T19:44:58.308Z,9.65
2023-04-19T19:47:30.943Z,9.71
2023-04-19T19:52:32.029Z,9.59
2023-04-19T19:54:59.615Z,9.48
2023-04-19T20:00:00.397Z,9.37
2023-04-19T20:02:54.770Z,9.32
2023-04-19T20:05:23.944Z,9.27
2023-04-19T20:10:21.032Z,9.11
2023-04-19T20:12:47.998Z,9.05
2023-04-19T20:15:14.968Z,8.98
2023-04-19T20:17:42.135Z,8.99
2023-04-19T20:20:11.220Z,8.96
2023-04-19T20:22:38.616Z,9.06
2023-04-19T20:25:06.131Z,9.02
2023-04-19T20:27:33.805Z,9.10
2023-04-19T20:30:07.410Z,9.08
2023-04-19T20:32:36.513Z,9.10
2023-04-19T20:35:10.188Z,9.07
2023-04-19T20:37:39.934Z,9.12
2023-04-19T20:40:09.723Z,9.14
2023-04-19T20:42:38.378Z,9.17
2023-04-19T20:45:07.105Z,9.20
2023-04-19T20:47:34.165Z,9.28
2023-04-19T20:50:01.188Z,9.17
2023-04-19T20:52:30.140Z,9.20
2023-04-19T20:54:59.859Z,9.22
2023-04-19T20:57:27.520Z,9.14
2023-04-19T20:59:54.463Z,9.20
2023-04-19T21:02:21.403Z,9.13
2023-04-19T21:04:49.341Z,9.12
2023-04-19T21:07:16.200Z,9.07
2023-04-19T21:09:43.079Z,9.14
2023-04-19T21:12:09.929Z,9.24
2023-04-19T21:14:36.782Z,9.26
2023-04-19T21:17:04.334Z,9.26
2023-04-19T21:19:31.542Z,9.26
2023-04-19T21:21:59.433Z,9.27
2023-04-19T21:24:26.376Z,9.37
2023-04-19T21:26:53.264Z,9.45
2023-04-19T21:29:21.076Z,9.53
2023-04-19T21:31:48.312Z,9.59
2023-04-19T21:34:15.102Z,9.66
2023-04-19T21:36:41.993Z,9.68
2023-04-19T21:39:10.280Z,9.71
2023-04-19T21:41:38.449Z,9.72
2023-04-19T21:44:05.491Z,9.72
2023-04-19T21:46:35.653Z,9.74
2023-04-19T21:49:03.643Z,9.79
2023-04-19T21:51:31.962Z,9.81
2023-04-19T21:53:58.865Z,9.79
2023-04-19T21:56:25.691Z,9.80
2023-04-19T21:58:53.721Z,9.68
2023-04-19T22:01:20.707Z,9.66
2023-04-19T22:03:47.948Z,9.64
2023-04-19T22:06:17.131Z,9.46
2023-04-19T22:08:45.593Z,9.44
2023-04-19T22:11:12.570Z,9.42
2023-04-19T22:13:40.268Z,9.39
2023-04-19T22:16:08.309Z,9.29
2023-04-19T22:18:35.884Z,9.30
2023-04-19T22:21:02.894Z,9.32
2023-04-19T22:23:29.726Z,9.35
2023-04-19T22:25:56.582Z,9.38
2023-04-19T22:28:25.816Z,9.35
2023-04-19T22:30:52.677Z,9.28
2023-04-19T22:33:24.405Z,9.29
2023-04-19T22:35:51.415Z,9.33
2023-04-19T22:38:21.296Z,9.35
2023-04-19T22:40:48.099Z,9.36
2023-04-19T22:43:14.914Z,9.37
2023-04-19T22:45:48.155Z,9.35
2023-04-19T22:48:15.492Z,9.32
2023-04-19T22:50:42.594Z,9.31
2023-04-19T22:53:12.676Z,9.27
2023-04-19T22:55:43.140Z,9.20
2023-04-19T22:58:10.229Z,9.18
2023-04-19T23:00:37.814Z,9.15
2023-04-19T23:03:05.156Z,9.14
2023-04-19T23:05:32.098Z,9.12
2023-04-19T23:07:59.379Z,9.08
2023-04-19T23:10:26.806Z,9.06
2023-04-19T23:12:54.976Z,9.05
2023-04-19T23:15:23.169Z,9.04
2023-04-19T23:17:50.828Z,9.02
2023-04-19T23:20:17.734Z,9.02
2023-04-19T23:22:44.609Z,9.02
2023-04-19T23:25:11.461Z,8.99
2023-04-19T23:27:38.380Z,8.94
2023-04-19T23:30:07.871Z,8.89
2023-04-19T23:32:36.029Z,8.85
2023-04-19T23:35:03.468Z,8.81
2023-04-19T23:37:31.112Z,8.75
2023-04-19T23:39:58.012Z,8.67
2023-04-19T23:42:24.830Z,8.57
2023-04-19T23:44:54.493Z,8.49
2023-04-19T23:47:21.998Z,8.46
2023-04-19T23:49:49.048Z,8.40
2023-04-19T23:52:16.065Z,8.37
2023-04-19T23:54:43.032Z,8.37
2023-04-19T23:57:09.924Z,8.38
2023-04-19T23:59:36.766Z,8.40
